Time;durP1;ratioP1;P1;durP2;ratioP2;P2;SDS_P1;SDS_P2;PMS_P1;PMS_P2;Temp;Humidity;BMP_temperature;BMP_pressure;BME280_temperature;BME280_humidity;BME280_pressure;Samples;Min_cycle;Max_cycle;Signal;HPM_P1;HPM_P2
2023/07/14 00:01:39;;;;;;;1.95;0.90;;;;;;;15.90;100.00;100465.25;5026456;28;20053;-62
2023/07/14 00:04:12;;;;;;;2.63;0.90;;;;;;;15.85;100.00;100465.56;5025814;28;20088;-62
2023/07/14 00:06:40;;;;;;;3.37;1.10;;;;;;;15.60;100.00;100458.34;5024895;28;20049;-62
2023/07/14 00:09:24;;;;;;;4.88;1.05;;;;;;;15.41;100.00;100456.00;5030232;28;20041;-62
2023/07/14 00:11:51;;;;;;;3.58;0.90;;;;;;;15.29;100.00;100454.13;5031834;28;20057;-62
2023/07/14 00:14:18;;;;;;;1.75;0.90;;;;;;;15.16;100.00;100459.31;5032122;28;20052;-62
2023/07/14 00:16:45;;;;;;;5.28;1.17;;;;;;;15.08;100.00;100462.38;5031592;28;20133;-62
2023/07/14 00:19:13;;;;;;;2.28;1.00;;;;;;;15.11;100.00;100456.94;5027909;28;20053;-62
2023/07/14 00:21:40;;;;;;;4.18;1.10;;;;;;;15.26;100.00;100465.69;5031215;28;20048;-62
2023/07/14 00:24:12;;;;;;;2.13;1.08;;;;;;;15.39;100.00;100463.16;5030933;28;20045;-62
2023/07/14 00:26:40;;;;;;;2.88;1.20;;;;;;;15.36;100.00;100461.53;5030887;28;20065;-62
2023/07/14 00:29:34;;;;;;;3.45;1.20;;;;;;;15.26;100.00;100470.13;5031890;28;20107;-62
2023/07/14 00:32:02;;;;;;;1.90;1.08;;;;;;;15.17;100.00;100458.34;5027878;28;20057;-62
2023/07/14 00:34:29;;;;;;;2.17;1.00;;;;;;;15.19;100.00;100464.38;5037574;28;20471;-62
2023/07/14 00:36:56;;;;;;;3.83;1.27;;;;;;;15.20;100.00;100474.00;5038699;28;20056;-62
2023/07/14 00:39:22;;;;;;;2.95;1.13;;;;;;;15.13;100.00;100480.56;5045521;28;20415;-62
2023/07/14 00:41:49;;;;;;;3.20;1.10;;;;;;;15.11;100.00;100477.19;5031283;28;20050;-62
2023/07/14 00:44:16;;;;;;;2.17;1.00;;;;;;;15.03;100.00;100469.72;5048662;28;20245;-62
2023/07/14 00:46:45;;;;;;;2.80;1.20;;;;;;;14.88;100.00;100460.97;5051034;28;20055;-62
2023/07/14 00:49:21;;;;;;;3.70;1.17;;;;;;;14.97;100.00;100470.94;5032446;28;20392;-62
2023/07/14 00:51:48;;;;;;;2.78;1.25;;;;;;;14.93;100.00;100466.81;5023888;28;20045;-63
2023/07/14 00:54:27;;;;;;;2.58;1.27;;;;;;;14.91;100.00;100476.59;5040391;28;20045;-62
2023/07/14 00:56:55;;;;;;;2.15;1.02;;;;;;;14.81;100.00;100463.09;5044195;28;20049;-62
2023/07/14 00:59:35;;;;;;;2.78;1.13;;;;;;;14.86;100.00;100465.47;5028620;28;20526;-63
2023/07/14 01:02:10;;;;;;;2.80;1.00;;;;;;;14.99;100.00;100476.13;5041534;28;20064;-62
2023/07/14 01:04:39;;;;;;;2.35;1.00;;;;;;;14.89;100.00;100473.22;5047055;28;20064;-66
2023/07/14 01:07:06;;;;;;;1.83;0.95;;;;;;;14.89;100.00;100465.31;5042009;28;20045;-62
2023/07/14 01:09:34;;;;;;;2.50;1.08;;;;;;;14.90;100.00;100471.41;5039659;28;20073;-62
2023/07/14 01:12:03;;;;;;;3.42;1.10;;;;;;;14.90;100.00;100466.16;5050133;28;20048;-62
2023/07/14 01:14:33;;;;;;;1.58;0.88;;;;;;;14.86;100.00;100467.28;5050076;28;20048;-62
2023/07/14 01:17:03;;;;;;;2.22;0.90;;;;;;;14.90;100.00;100469.63;5050278;28;20383;-62
2023/07/14 01:19:39;;;;;;;1.83;0.90;;;;;;;14.78;100.00;100465.09;5039034;28;20057;-62
2023/07/14 01:22:26;;;;;;;1.45;0.80;;;;;;;14.80;100.00;100465.84;5003531;28;20049;-62
2023/07/14 01:25:00;;;;;;;1.85;1.10;;;;;;;14.78;100.00;100463.31;5029484;28;20049;-62
2023/07/14 01:27:27;;;;;;;2.63;1.10;;;;;;;14.74;100.00;100460.94;5032359;28;20526;-62
2023/07/14 01:29:54;;;;;;;2.10;1.00;;;;;;;14.55;100.00;100450.59;5029595;28;20133;-62
2023/07/14 01:32:23;;;;;;;1.70;0.98;;;;;;;14.51;100.00;100459.63;5031003;28;20073;-63
2023/07/14 01:34:50;;;;;;;2.00;1.00;;;;;;;14.44;100.00;100444.16;5030177;28;20092;-63
2023/07/14 01:37:20;;;;;;;1.55;0.80;;;;;;;14.59;100.00;100463.53;5030311;28;20053;-63
2023/07/14 01:39:50;;;;;;;3.28;0.90;;;;;;;14.56;100.00;100453.16;5029508;28;20049;-63
2023/07/14 01:42:18;;;;;;;2.03;1.00;;;;;;;14.61;100.00;100453.75;5030041;28;20088;-63
2023/07/14 01:44:46;;;;;;;2.00;0.95;;;;;;;14.47;100.00;100447.59;5030139;28;20061;-63
2023/07/14 01:47:13;;;;;;;4.82;1.00;;;;;;;14.47;100.00;100455.50;5030398;28;20147;-63
2023/07/14 01:49:47;;;;;;;1.70;1.00;;;;;;;14.36;100.00;100445.56;5028647;28;20475;-63
2023/07/14 01:52:20;;;;;;;1.73;1.02;;;;;;;14.36;100.00;100445.56;5029731;28;20057;-63
2023/07/14 01:55:01;;;;;;;2.20;1.13;;;;;;;14.25;100.00;100443.53;5031999;28;20601;-63
2023/07/14 01:57:30;;;;;;;3.67;1.00;;;;;;;14.16;100.00;100441.44;5016687;28;20057;-63
2023/07/14 02:00:09;;;;;;;2.25;1.15;;;;;;;14.13;100.00;100437.22;5018685;28;20407;-63
2023/07/14 02:02:38;;;;;;;1.88;0.90;;;;;;;14.00;100.00;100442.31;5034671;28;20519;-63
2023/07/14 02:05:19;;;;;;;1.73;1.00;;;;;;;13.99;100.00;100440.63;5033357;28;20053;-63
2023/07/14 02:07:46;;;;;;;2.05;0.95;;;;;;;13.97;100.00;100434.59;5033496;28;20418;-63
2023/07/14 02:10:18;;;;;;;2.00;1.00;;;;;;;13.93;100.00;100430.44;5022599;28;20474;-63
2023/07/14 02:12:49;;;;;;;1.13;0.80;;;;;;;14.02;100.00;100431.69;5033965;28;20407;-63
2023/07/14 02:15:20;;;;;;;1.95;0.90;;;;;;;14.16;100.00;100436.19;5033530;28;20072;-63
2023/07/14 02:17:48;;;;;;;1.98;0.98;;;;;;;14.16;100.00;100429.13;5034010;28;20060;-63
2023/07/14 02:20:26;;;;;;;1.20;0.80;;;;;;;14.19;100.00;100436.00;5022367;28;20408;-63
2023/07/14 02:22:55;;;;;;;2.40;0.90;;;;;;;14.09;100.00;100432.19;5030491;28;20072;-63
2023/07/14 02:25:26;;;;;;;1.13;0.80;;;;;;;14.04;100.00;100430.69;5024134;28;20115;-63
2023/07/14 02:27:52;;;;;;;3.00;0.82;;;;;;;13.97;100.00;100429.34;5028804;28;20054;-63
2023/07/14 02:30:23;;;;;;;1.48;0.90;;;;;;;14.00;100.00;100439.66;5032707;28;20462;-63
2023/07/14 02:32:54;;;;;;;1.73;0.90;;;;;;;13.67;100.00;100443.28;5032292;28;20407;-63
2023/07/14 02:35:38;;;;;;;2.03;1.00;;;;;;;13.55;100.00;100433.41;5029343;28;20042;-63
2023/07/14 02:38:16;;;;;;;2.05;1.10;;;;;;;13.65;100.00;100431.13;5031378;28;20050;-63
2023/07/14 02:41:27;;;;;;;1.30;0.88;;;;;;;13.94;100.00;100434.78;5032164;28;20045;-63
2023/07/14 02:44:00;;;;;;;2.17;0.90;;;;;;;13.95;100.00;100414.56;5017876;28;20046;-63
2023/07/14 02:46:39;;;;;;;3.83;1.20;;;;;;;14.06;100.00;100430.59;5041130;28;20052;-62
2023/07/14 02:49:06;;;;;;;1.10;0.90;;;;;;;14.04;100.00;100425.41;5045411;28;20287;-63
2023/07/14 02:51:33;;;;;;;2.13;1.10;;;;;;;14.02;100.00;100421.16;5014766;28;20057;-63
2023/07/14 02:53:59;;;;;;;1.77;1.00;;;;;;;13.98;100.00;100417.84;5038784;28;20056;-63
2023/07/14 02:56:26;;;;;;;1.48;0.80;;;;;;;13.74;100.00;100421.88;5051471;28;20049;-63
2023/07/14 02:58:53;;;;;;;6.25;1.40;;;;;;;13.50;100.00;100414.41;5037159;28;20129;-63
2023/07/14 03:01:20;;;;;;;4.15;1.00;;;;;;;13.57;100.00;100412.31;5034216;28;20379;-63
2023/07/14 03:03:47;;;;;;;1.40;0.80;;;;;;;13.72;100.00;100410.59;5052619;28;20140;-63
2023/07/14 03:06:16;;;;;;;2.63;1.00;;;;;;;13.75;100.00;100411.25;5043701;28;20889;-63
2023/07/14 03:08:43;;;;;;;1.15;0.80;;;;;;;13.76;100.00;100418.22;5033847;28;20050;-63
2023/07/14 03:11:10;;;;;;;1.35;0.90;;;;;;;13.78;100.00;100407.63;5030496;28;20545;-63
2023/07/14 03:13:38;;;;;;;1.33;0.90;;;;;;;13.77;100.00;100403.28;5038925;28;20054;-63
2023/07/14 03:16:05;;;;;;;1.95;1.00;;;;;;;13.67;100.00;100403.81;5051911;28;20134;-63
2023/07/14 03:18:32;;;;;;;3.00;1.20;;;;;;;13.40;100.00;100400.94;5041352;28;20136;-63
2023/07/14 03:21:03;;;;;;;1.83;0.90;;;;;;;13.33;100.00;100394.28;5036284;28;20498;-63
2023/07/14 03:23:31;;;;;;;1.95;0.90;;;;;;;13.41;100.00;100392.09;5044328;28;20041;-63
2023/07/14 03:26:05;;;;;;;1.70;0.90;;;;;;;13.56;100.00;100397.44;5052422;28;20053;-63
2023/07/14 03:28:33;;;;;;;2.40;1.08;;;;;;;13.59;100.00;100394.66;5042878;28;20479;-63
2023/07/14 03:31:03;;;;;;;1.85;1.00;;;;;;;13.56;100.00;100394.81;5036216;28;20698;-63
2023/07/14 03:33:32;;;;;;;2.60;1.10;;;;;;;13.39;100.00;100393.13;5043468;28;20049;-63
2023/07/14 03:36:09;;;;;;;2.97;1.00;;;;;;;13.29;100.00;100387.47;5033674;28;20089;-63
2023/07/14 03:38:40;;;;;;;3.60;1.23;;;;;;;13.37;100.00;100385.31;5043446;28;20079;-63
2023/07/14 03:41:07;;;;;;;2.28;1.00;;;;;;;13.29;100.00;100390.94;5030440;28;20107;-63
2023/07/14 03:43:33;;;;;;;1.48;0.90;;;;;;;13.36;100.00;100390.66;5051733;28;20041;-63
2023/07/14 03:46:00;;;;;;;0.93;0.80;;;;;;;13.48;100.00;100388.19;5050876;28;20371;-63
2023/07/14 03:48:27;;;;;;;2.00;1.02;;;;;;;13.42;100.00;100392.94;5033474;28;20092;-63
2023/07/14 03:51:00;;;;;;;4.32;1.05;;;;;;;13.27;100.00;100403.31;5031015;28;20053;-63
2023/07/14 03:53:26;;;;;;;3.15;1.15;;;;;;;13.10;100.00;100398.13;5049445;28;20414;-63
2023/07/14 03:55:53;;;;;;;3.92;1.20;;;;;;;13.09;100.00;100393.81;5036175;28;20053;-63
2023/07/14 03:58:20;;;;;;;1.35;0.90;;;;;;;13.22;100.00;100376.44;5031573;28;20388;-63
2023/07/14 04:00:47;;;;;;;1.42;1.00;;;;;;;13.42;100.00;100378.03;5036372;28;20056;-63
2023/07/14 04:03:13;;;;;;;2.33;1.30;;;;;;;13.46;100.00;100381.34;5037513;28;20053;-63
2023/07/14 04:05:47;;;;;;;1.88;1.05;;;;;;;13.42;100.00;100385.91;5039083;28;20056;-63
2023/07/14 04:08:14;;;;;;;1.90;1.13;;;;;;;13.48;100.00;100380.31;5037834;28;20061;-63
2023/07/14 04:10:40;;;;;;;2.40;1.08;;;;;;;13.44;100.00;100383.22;5023370;28;20501;-63
2023/07/14 04:13:08;;;;;;;1.38;1.00;;;;;;;13.45;100.00;100385.72;5051224;28;20060;-63
2023/07/14 04:15:34;;;;;;;1.55;0.90;;;;;;;13.66;100.00;100385.47;5046568;28;20106;-62
2023/07/14 04:18:01;;;;;;;3.03;1.35;;;;;;;13.80;100.00;100385.53;5041852;28;20068;-63
2023/07/14 04:20:28;;;;;;;3.75;1.00;;;;;;;14.21;100.00;100386.72;5022763;28;20046;-63
2023/07/14 04:22:55;;;;;;;2.78;1.10;;;;;;;14.50;100.00;100395.56;5040243;28;20128;-63
2023/07/14 04:25:22;;;;;;;2.22;1.00;;;;;;;14.95;100.00;100385.00;5045125;28;20053;-63
2023/07/14 04:27:49;;;;;;;2.20;1.13;;;;;;;15.14;100.00;100387.34;5030705;28;20130;-63
2023/07/14 04:30:16;;;;;;;1.70;1.00;;;;;;;15.65;100.00;100390.28;5030077;28;20057;-63
2023/07/14 04:32:43;;;;;;;1.75;0.90;;;;;;;15.81;100.00;100387.53;5037015;28;20052;-63
2023/07/14 04:35:09;;;;;;;2.00;1.00;;;;;;;15.99;100.00;100397.81;5039558;28;20084;-63
2023/07/14 04:37:36;;;;;;;1.85;0.90;;;;;;;16.07;100.00;100391.06;5034810;28;20041;-63
2023/07/14 04:40:06;;;;;;;4.55;1.00;;;;;;;15.84;100.00;100394.38;5032394;28;20070;-63
2023/07/14 04:42:51;;;;;;;1.20;0.90;;;;;;;15.38;100.00;100388.44;5029864;28;20061;-63
2023/07/14 04:45:20;;;;;;;1.63;0.85;;;;;;;15.22;100.00;100389.50;5041526;28;20541;-63
2023/07/14 04:47:50;;;;;;;1.73;0.90;;;;;;;15.09;100.00;100385.00;5050694;28;20052;-63
2023/07/14 04:50:17;;;;;;;1.02;0.80;;;;;;;15.32;100.00;100386.19;5021298;28;20055;-63
2023/07/14 04:52:44;;;;;;;1.30;0.80;;;;;;;15.17;100.00;100381.88;5042096;28;20059;-63
2023/07/14 04:55:11;;;;;;;0.85;0.70;;;;;;;14.75;100.00;100388.84;5050037;28;20049;-62
2023/07/14 04:57:38;;;;;;;2.58;0.90;;;;;;;14.38;100.00;100383.13;5037927;28;20155;-62
2023/07/14 05:00:05;;;;;;;1.30;0.77;;;;;;;14.67;100.00;100370.03;5031745;28;20494;-62
2023/07/14 05:02:32;;;;;;;3.60;0.82;;;;;;;14.73;100.00;100364.38;5042340;28;20495;-62
2023/07/14 05:05:14;;;;;;;1.65;0.80;;;;;;;14.71;100.00;100372.34;5032754;28;20502;-62
2023/07/14 05:07:41;;;;;;;2.97;0.80;;;;;;;14.79;100.00;100366.66;5050875;28;20060;-62
2023/07/14 05:10:08;;;;;;;1.85;0.80;;;;;;;14.86;100.00;100361.84;5033294;28;20050;-62
2023/07/14 05:12:35;;;;;;;2.10;0.90;;;;;;;14.83;100.00;100354.97;5050293;28;20063;-62
2023/07/14 05:15:04;;;;;;;1.65;0.80;;;;;;;14.60;100.00;100356.38;5049817;28;20132;-62
2023/07/14 05:17:33;;;;;;;4.07;0.90;;;;;;;14.45;100.00;100350.22;5044247;28;20712;-62
2023/07/14 05:20:00;;;;;;;1.98;0.80;;;;;;;14.61;100.00;100347.53;5025758;28;20046;-62
2023/07/14 05:22:27;;;;;;;1.15;0.80;;;;;;;14.68;100.00;100350.63;5033856;28;20080;-62
2023/07/14 05:24:54;;;;;;;1.67;0.88;;;;;;;14.63;100.00;100342.19;5039518;28;20061;-63
2023/07/14 05:27:21;;;;;;;1.88;0.95;;;;;;;14.65;100.00;100346.41;5029201;28;20056;-62
2023/07/14 05:29:49;;;;;;;3.42;1.00;;;;;;;14.49;100.00;100319.25;5021594;28;20046;-63
2023/07/14 05:32:16;;;;;;;2.50;1.10;;;;;;;14.61;100.00;100343.09;5027057;28;20053;-62
2023/07/14 05:34:43;;;;;;;1.45;0.90;;;;;;;14.48;100.00;100346.53;5043432;28;20501;-62
2023/07/14 05:37:11;;;;;;;1.88;0.95;;;;;;;14.45;100.00;100337.03;5049912;28;20599;-62
2023/07/14 05:39:38;;;;;;;2.33;1.10;;;;;;;14.50;100.00;100331.47;5038517;28;20399;-63
2023/07/14 05:42:05;;;;;;;3.15;1.27;;;;;;;14.44;100.00;100341.44;5035835;28;20148;-62
2023/07/14 05:44:31;;;;;;;3.42;1.00;;;;;;;14.41;100.00;100338.16;5035713;28;20124;-62
2023/07/14 05:46:58;;;;;;;2.10;0.85;;;;;;;14.44;100.00;100336.16;5039797;28;20048;-62
2023/07/14 05:49:25;;;;;;;1.83;0.98;;;;;;;14.43;100.00;100345.03;5030313;28;20081;-62
2023/07/14 05:51:52;;;;;;;1.98;1.08;;;;;;;14.14;100.00;100343.28;5033691;28;20045;-62
2023/07/14 05:54:22;;;;;;;1.75;1.08;;;;;;;14.46;100.00;100353.69;5040625;28;20053;-62
2023/07/14 05:56:50;;;;;;;2.63;1.00;;;;;;;14.26;100.00;100360.16;5045607;28;20397;-62
2023/07/14 05:59:17;;;;;;;1.88;0.90;;;;;;;14.38;100.00;100352.34;5033758;28;20050;-62
2023/07/14 06:01:48;;;;;;;2.20;1.00;;;;;;;14.47;100.00;100335.16;5028645;28;20479;-62
2023/07/14 06:04:16;;;;;;;2.47;1.00;;;;;;;14.55;100.00;100330.25;5049572;28;20080;-64
2023/07/14 06:06:42;;;;;;;1.67;0.80;;;;;;;14.90;100.00;100337.00;5035178;28;20061;-62
2023/07/14 06:09:09;;;;;;;2.28;0.85;;;;;;;15.06;100.00;100344.78;5045551;28;20128;-62
2023/07/14 06:11:36;;;;;;;2.30;1.10;;;;;;;14.98;100.00;100335.56;5033110;28;20136;-63
2023/07/14 06:14:02;;;;;;;2.10;1.00;;;;;;;14.93;100.00;100326.25;5028397;28;20042;-62
2023/07/14 06:16:29;;;;;;;3.47;0.95;;;;;;;14.99;100.00;100339.88;5030018;28;20046;-63
2023/07/14 06:18:56;;;;;;;2.42;1.00;;;;;;;14.93;100.00;100331.53;5042510;28;20050;-62
2023/07/14 06:21:23;;;;;;;2.30;1.13;;;;;;;14.93;100.00;100337.63;5026997;28;20550;-62
2023/07/14 06:23:50;;;;;;;1.95;1.00;;;;;;;14.76;100.00;100333.41;5046257;28;20533;-63
2023/07/14 06:26:17;;;;;;;2.65;1.00;;;;;;;14.64;100.00;100333.31;5041794;28;20057;-63
2023/07/14 06:28:43;;;;;;;3.13;1.10;;;;;;;14.52;100.00;100319.94;5030310;28;20049;-63
2023/07/14 06:31:13;;;;;;;2.20;1.10;;;;;;;14.72;100.00;100334.53;5034768;28;20045;-63
2023/07/14 06:33:40;;;;;;;4.05;1.23;;;;;;;14.91;100.00;100307.91;5049830;28;20398;-63
2023/07/14 06:36:07;;;;;;;2.38;1.10;;;;;;;15.21;100.00;100325.38;5028601;28;20064;-63
2023/07/14 06:38:34;;;;;;;1.75;1.00;;;;;;;15.33;100.00;100332.50;5040978;28;20045;-63
2023/07/14 06:41:03;;;;;;;3.70;1.10;;;;;;;15.29;100.00;100323.06;5025054;28;20056;-63
2023/07/14 06:43:32;;;;;;;5.25;1.02;;;;;;;15.38;100.00;100330.41;5042325;28;20483;-63
2023/07/14 06:45:59;;;;;;;2.25;1.08;;;;;;;15.20;100.00;100334.22;5036973;28;20049;-63
2023/07/14 06:48:26;;;;;;;1.60;0.82;;;;;;;15.17;100.00;100330.00;5037436;28;20138;-63
2023/07/14 06:50:54;;;;;;;2.42;1.02;;;;;;;15.19;100.00;100336.00;5031361;28;20053;-64
2023/07/14 06:53:21;;;;;;;2.65;1.20;;;;;;;15.36;100.00;100340.19;5049448;28;20060;-64
2023/07/14 06:55:48;;;;;;;3.20;1.13;;;;;;;15.35;100.00;100327.09;5043154;28;20060;-63
2023/07/14 06:58:14;;;;;;;1.63;0.90;;;;;;;15.46;100.00;100327.28;5032991;28;21067;-63
2023/07/14 07:00:41;;;;;;;2.38;1.10;;;;;;;15.67;100.00;100332.97;5033888;28;20080;-63
2023/07/14 07:03:08;;;;;;;2.80;1.15;;;;;;;15.84;100.00;100328.38;5046096;28;20407;-63
2023/07/14 07:05:37;;;;;;;3.42;1.30;;;;;;;15.80;100.00;100337.47;5042359;28;20103;-63
2023/07/14 07:08:08;;;;;;;2.00;1.00;;;;;;;16.02;100.00;100335.06;5052288;28;20085;-63
2023/07/14 07:10:35;;;;;;;2.50;0.98;;;;;;;16.02;100.00;100337.72;5025346;28;20143;-63
2023/07/14 07:13:02;;;;;;;4.57;1.10;;;;;;;16.05;100.00;100334.03;5043355;28;20045;-63
2023/07/14 07:15:29;;;;;;;5.18;1.20;;;;;;;16.22;100.00;100325.84;5038278;28;20041;-63
2023/07/14 07:17:55;;;;;;;3.75;1.40;;;;;;;16.04;100.00;100325.28;5053145;28;20052;-63
2023/07/14 07:20:22;;;;;;;4.30;1.40;;;;;;;16.07;100.00;100332.97;5031302;28;20050;-63
2023/07/14 07:22:49;;;;;;;4.47;1.63;;;;;;;16.33;100.00;100331.22;5052484;28;20079;-63
2023/07/14 07:25:19;;;;;;;3.22;1.30;;;;;;;16.22;100.00;100333.75;5044866;28;20064;-63
2023/07/14 07:27:45;;;;;;;3.25;1.40;;;;;;;16.31;100.00;100319.09;5027972;28;20045;-62
2023/07/14 07:30:14;;;;;;;5.72;1.85;;;;;;;16.59;100.00;100320.66;5019086;28;20045;-63
2023/07/14 07:32:41;;;;;;;7.88;2.15;;;;;;;16.47;100.00;100293.28;5027849;28;20045;-63
2023/07/14 07:35:09;;;;;;;4.53;1.60;;;;;;;16.88;100.00;100326.56;5024880;28;20045;-63
2023/07/14 07:37:36;;;;;;;4.43;1.60;;;;;;;17.20;100.00;100333.19;5023807;28;20064;-63
2023/07/14 07:40:03;;;;;;;4.95;1.50;;;;;;;17.15;100.00;100330.84;5029244;28;20053;-63
2023/07/14 07:42:29;;;;;;;5.80;1.88;;;;;;;17.29;100.00;100329.88;5032009;28;20533;-63
2023/07/14 07:44:56;;;;;;;6.30;2.30;;;;;;;17.31;100.00;100333.25;5035563;28;20053;-63
2023/07/14 07:47:23;;;;;;;8.48;2.42;;;;;;;17.25;100.00;100325.75;5050096;28;20052;-63
2023/07/14 07:49:49;;;;;;;5.47;1.90;;;;;;;17.22;100.00;100316.22;5029407;28;20486;-63
2023/07/14 07:52:16;;;;;;;6.85;2.15;;;;;;;17.68;100.00;100335.84;5030650;28;20058;-63
2023/07/14 07:54:45;;;;;;;6.40;1.70;;;;;;;17.76;100.00;100338.78;5025366;28;20108;-63
2023/07/14 07:57:12;;;;;;;6.68;2.03;;;;;;;18.02;100.00;100336.88;5027694;28;20045;-63
2023/07/14 07:59:39;;;;;;;7.35;1.98;;;;;;;17.76;100.00;100340.56;5013266;28;20045;-63
2023/07/14 08:02:07;;;;;;;6.13;2.30;;;;;;;17.54;100.00;100336.88;5018683;28;20044;-63
2023/07/14 08:04:34;;;;;;;5.57;1.83;;;;;;;17.61;100.00;100324.03;5030724;28;20045;-63
2023/07/14 08:07:00;;;;;;;6.82;2.03;;;;;;;17.80;100.00;100334.13;5027909;28;20096;-63
2023/07/14 08:09:27;;;;;;;5.80;2.08;;;;;;;17.76;100.00;100324.69;5025842;28;20056;-63
2023/07/14 08:11:55;;;;;;;4.32;1.45;;;;;;;17.73;100.00;100335.53;5016680;28;20045;-64
2023/07/14 08:14:22;;;;;;;7.68;2.05;;;;;;;18.00;100.00;100333.47;5029695;28;20045;-63
2023/07/14 08:16:49;;;;;;;7.43;2.05;;;;;;;18.16;100.00;100327.88;5025694;28;20054;-63
2023/07/14 08:19:15;;;;;;;4.90;1.75;;;;;;;18.17;100.00;100326.09;5029310;28;20084;-63
2023/07/14 08:21:42;;;;;;;7.60;2.13;;;;;;;18.00;100.00;100324.69;5026815;28;20487;-63
2023/07/14 08:24:09;;;;;;;4.20;1.63;;;;;;;17.99;100.00;100321.22;5029267;28;20471;-63
2023/07/14 08:26:37;;;;;;;5.40;1.70;;;;;;;18.03;100.00;100311.22;5022456;28;20057;-63
2023/07/14 08:29:05;;;;;;;5.13;1.80;;;;;;;18.06;100.00;100304.84;5033756;28;20486;-63
2023/07/14 08:31:31;;;;;;;8.23;2.10;;;;;;;17.83;100.00;100310.91;5020562;28;20049;-63
2023/07/14 08:33:58;;;;;;;6.95;2.13;;;;;;;17.81;100.00;100315.47;5020599;28;20077;-63
2023/07/14 08:36:25;;;;;;;5.32;1.80;;;;;;;17.88;100.00;100312.38;5022364;28;20049;-63
2023/07/14 08:38:54;;;;;;;4.65;1.67;;;;;;;17.67;100.00;100293.59;5016215;28;20483;-63
2023/07/14 08:41:41;;;;;;;4.95;1.60;;;;;;;17.61;100.00;100322.22;5029801;28;20049;-63
2023/07/14 08:44:24;;;;;;;6.80;1.90;;;;;;;17.46;100.00;100316.25;5023947;28;20041;-63
2023/07/14 08:47:10;;;;;;;5.15;1.42;;;;;;;17.42;100.00;100319.22;5030059;28;20072;-63
2023/07/14 08:49:57;;;;;;;7.28;1.75;;;;;;;17.65;100.00;100307.81;5025286;28;20054;-63
2023/07/14 08:52:32;;;;;;;5.30;2.00;;;;;;;17.30;100.00;100318.34;5025253;28;20061;-63
2023/07/14 08:55:18;;;;;;;4.13;1.40;;;;;;;17.52;100.00;100319.41;5025523;28;20045;-63
2023/07/14 08:57:57;;;;;;;3.92;1.42;;;;;;;17.45;100.00;100311.91;5025731;28;20144;-63
2023/07/14 09:00:30;;;;;;;5.30;1.70;;;;;;;17.33;100.00;100302.22;5026342;28;20056;-63
2023/07/14 09:03:06;;;;;;;;;;;;;;;17.50;100.00;100316.88;5022899;28;20046;-63
2023/07/14 09:05:37;;;;;;;6.13;1.38;;;;;;;17.45;100.00;100309.25;5019705;28;19925;-63
2023/07/14 09:08:05;;;;;;;4.30;1.50;;;;;;;17.68;100.00;100311.19;5026991;28;20056;-63
2023/07/14 09:10:44;;;;;;;4.07;1.33;;;;;;;17.62;100.00;100299.25;5020471;28;20056;-63
2023/07/14 09:13:30;;;;;;;5.28;1.80;;;;;;;17.73;100.00;100317.00;5024353;28;20054;-63
2023/07/14 09:15:57;;;;;;;6.65;2.03;;;;;;;17.62;100.00;100308.03;5019090;28;20049;-63
2023/07/14 09:18:43;;;;;;;7.93;1.65;;;;;;;17.24;100.00;100302.91;5006843;28;20095;-63
2023/07/14 09:21:24;;;;;;;4.93;1.50;;;;;;;17.44;100.00;100312.03;5017374;28;20416;-63
2023/07/14 09:24:13;;;;;;;5.72;1.98;;;;;;;17.40;100.00;100319.34;5020447;28;20050;-63
2023/07/14 09:26:44;;;;;;;3.17;1.33;;;;;;;17.26;100.00;100309.78;5022707;28;20042;-63
2023/07/14 09:29:32;;;;;;;3.47;1.50;;;;;;;16.96;100.00;100277.59;5019765;28;20136;-63
2023/07/14 09:32:17;;;;;;;6.15;1.90;;;;;;;16.85;100.00;100291.56;5028591;28;20053;-63
2023/07/14 09:34:55;;;;;;;4.97;1.73;;;;;;;16.88;100.00;100286.91;5017022;28;20085;-63
2023/07/14 09:37:47;;;;;;;4.38;1.70;;;;;;;16.93;100.00;100296.31;5026465;28;20073;-63
2023/07/14 09:40:21;;;;;;;4.85;1.80;;;;;;;17.08;100.00;100293.41;5009433;28;20616;-63
2023/07/14 09:42:59;;;;;;;5.60;1.67;;;;;;;17.07;100.00;100299.69;5023013;28;20046;-63
2023/07/14 09:45:30;;;;;;;9.88;6.68;;;;;;;16.91;100.00;100290.28;5027407;28;20148;-63
2023/07/14 09:48:17;;;;;;;5.50;2.45;;;;;;;17.07;100.00;100293.56;5039573;28;20053;-63
2023/07/14 09:51:04;;;;;;;5.32;1.90;;;;;;;16.94;100.00;100276.84;5008034;28;20049;-63
2023/07/14 09:53:35;;;;;;;9.88;2.30;;;;;;;16.76;100.00;100292.19;5026399;28;20113;-63
2023/07/14 09:56:25;;;;;;;8.55;2.13;;;;;;;16.75;100.00;100285.22;5020716;28;20406;-63
2023/07/14 09:58:54;;;;;;;7.28;2.20;;;;;;;16.80;100.00;100275.16;5016140;28;20454;-63
2023/07/14 10:01:21;;;;;;;5.95;1.80;;;;;;;17.09;100.00;100278.41;5016508;28;20536;-63
2023/07/14 10:03:52;;;;;;;7.18;2.28;;;;;;;17.26;100.00;100288.63;5019207;28;20053;-63
2023/07/14 10:06:26;;;;;;;6.55;1.95;;;;;;;16.94;100.00;100279.50;5012710;28;20054;-63
2023/07/14 10:09:04;;;;;;;6.13;1.60;;;;;;;16.64;100.00;100281.56;5016767;28;20045;-63
2023/07/14 10:11:49;;;;;;;9.85;2.03;;;;;;;16.52;100.00;100280.59;5015219;28;20493;-63
2023/07/14 10:14:25;;;;;;;7.55;2.03;;;;;;;16.56;100.00;100278.59;4996093;28;20060;-63
2023/07/14 10:16:56;;;;;;;8.63;1.70;;;;;;;16.81;100.00;100264.47;5012989;28;20396;-63
2023/07/14 10:19:34;;;;;;;4.50;1.48;;;;;;;16.93;100.00;100269.88;5029449;28;20053;-62
2023/07/14 10:22:09;;;;;;;5.68;1.60;;;;;;;17.25;100.00;100267.56;5028965;28;20052;-62
2023/07/14 10:24:37;;;;;;;7.25;1.88;;;;;;;17.27;100.00;100263.00;5032640;28;20045;-62
2023/07/14 10:27:14;;;;;;;7.95;2.50;;;;;;;17.24;100.00;100256.13;5024124;28;20053;-62
2023/07/14 10:30:06;;;;;;;10.77;2.65;;;;;;;17.27;100.00;100265.63;5019075;28;20053;-62
2023/07/14 10:32:44;;;;;;;6.03;2.05;;;;;;;17.38;100.00;100259.56;5012659;28;20080;-62
2023/07/14 10:35:15;;;;;;;6.57;1.95;;;;;;;17.61;100.00;100263.97;5031146;28;20047;-62
2023/07/14 10:37:46;;;;;;;9.55;2.22;;;;;;;17.67;100.00;100261.84;5021268;28;20048;-62
2023/07/14 10:40:36;;;;;;;6.88;1.83;;;;;;;17.55;100.00;100256.50;5023434;28;20114;-62
2023/07/14 10:43:14;;;;;;;6.50;2.25;;;;;;;17.63;100.00;100253.28;5033396;28;20053;-62
2023/07/14 10:45:44;;;;;;;5.97;1.75;;;;;;;17.51;100.00;100238.31;5040349;28;20041;-62
2023/07/14 10:48:19;;;;;;;5.15;1.67;;;;;;;17.32;100.00;100244.16;5042827;28;20050;-62
2023/07/14 10:51:00;;;;;;;6.72;1.90;;;;;;;17.92;100.00;100235.25;5010719;28;20138;-62
2023/07/14 10:53:41;;;;;;;11.48;2.67;;;;;;;18.06;100.00;100228.03;5025541;28;20053;-62
2023/07/14 10:56:24;;;;;;;9.80;2.63;;;;;;;18.30;100.00;100227.94;5024891;28;20046;-62
2023/07/14 10:58:56;;;;;;;;;;;;;;;18.30;100.00;100227.94;5015386;28;20050;-63
2023/07/14 11:01:32;;;;;;;6.88;2.20;;;;;;;18.50;100.00;100221.06;5010308;28;20014;-63
2023/07/14 11:04:29;;;;;;;6.72;1.50;;;;;;;18.52;100.00;100222.63;5020034;28;20080;-63
2023/07/14 11:06:57;;;;;;;10.15;2.03;;;;;;;18.67;100.00;100223.22;5028775;28;20046;-62
2023/07/14 11:09:25;;;;;;;9.98;2.13;;;;;;;18.50;100.00;100221.94;5025018;28;20054;-64
2023/07/14 11:12:23;;;;;;;7.70;2.10;;;;;;;18.47;100.00;100216.84;5010407;28;20059;-63
2023/07/14 11:15:04;;;;;;;6.32;1.92;;;;;;;18.47;100.00;100214.22;5005717;28;20159;-62
2023/07/14 11:17:37;;;;;;;7.30;2.47;;;;;;;18.35;100.00;100217.81;5018713;28;20131;-62
2023/07/14 11:20:09;;;;;;;;;;;;;;;18.56;100.00;100221.44;5016744;28;20108;-62
2023/07/14 11:23:07;;;;;;;9.18;2.60;;;;;;;18.62;100.00;100213.94;5018711;28;19920;-63
2023/07/14 11:25:48;;;;;;;6.63;2.25;;;;;;;18.10;100.00;100214.44;5026221;28;20046;-62
2023/07/14 11:28:41;;;;;;;10.60;2.38;;;;;;;18.16;100.00;100198.03;5028253;28;20064;-63
2023/07/14 11:31:25;;;;;;;6.53;2.00;;;;;;;18.48;100.00;100199.97;5018644;28;20060;-62
2023/07/14 11:34:20;;;;;;;9.02;2.15;;;;;;;18.52;100.00;100190.81;5017042;28;20052;-63
2023/07/14 11:37:08;;;;;;;10.30;2.15;;;;;;;18.90;100.00;100200.19;5017834;28;20044;-64